• Join FlightAware (Why Join?)
  • Login
  • US Flag 
09:22PM EDT


 

Airport Tracker/Info


-or-


 

Live Flight TrackerFlight Track Log ✈ SVA237 ✈ 21-Aug-2013 ✈ OEJN / JED - LSGG / GVA

Flight Track Log - Related Links

Times and Time Zones

All times are in EDT time to prevent confusion due to time zone crossing. See the SVA237 flight status page for this flight to view local times or setup timezone preferences in your user account.

Time Position Orientation Groundspeed Altitude Reporting Facility
EDT Latitude Longitude Course Direction KTS MPH feet Rate Location/Type
05:02AM 34.0730 25.0650 314° West 460 529 34,000  Level FlightAware
05:02AM 34.1270 25.0020 316° Northwest 461 531 34,000  Level FlightAware
05:03AM 34.1720 24.9490 316° Northwest 461 531 34,000  Level FlightAware
05:04AM 34.2420 24.8660 316° Northwest 460 529 34,000  Level FlightAware
05:04AM 34.2960 24.8030 316° Northwest 460 529 34,000  Level FlightAware
05:05AM 34.3500 24.7390 316° Northwest 460 529 34,000  Level FlightAware
05:05AM 34.4060 24.6720 315° West 460 529 34,000  Level FlightAware
05:06AM 34.4590 24.6100 316° Northwest 459 528 34,000  Level FlightAware
05:07AM 34.5180 24.5390 315° West 459 528 34,000  Level FlightAware
05:07AM 34.5670 24.4810 316° Northwest 459 528 34,000  Level FlightAware
05:08AM 34.6200 24.4170 315° West 460 529 34,000  Level FlightAware
05:08AM 34.6800 24.3450 315° West 461 531 34,000  Level FlightAware
05:09AM 34.7290 24.2870 316° Northwest 461 531 34,000  Level FlightAware
05:10AM 34.7810 24.2240 315° West 461 531 34,000  Level FlightAware
05:10AM 34.8340 24.1600 315° West 460 529 34,000  Level FlightAware
05:11AM 34.8940 24.0880 315° West 458 527 34,000  Level FlightAware
05:11AM 34.9410 24.0310 315° West 458 527 34,000  Level FlightAware
05:12AM 34.9950 23.9650 315° West 460 529 34,000  Level FlightAware
05:12AM 35.0480 23.9020 316° Northwest 461 531 34,000  Level FlightAware
05:13AM 35.1070 23.8300 315° West 469 540 34,000  Level FlightAware
05:14AM 35.1620 23.7630 315° West 469 540 34,000  Level FlightAware
05:14AM 35.2100 23.7000 313° West 463 533 34,000  Level FlightAware
05:15AM 35.2560 23.6250 307° West 454 522 34,000  Level FlightAware
05:15AM 35.2940 23.5470 301° West 453 521 34,000  Level FlightAware
05:16AM 35.3330 23.4700 302° West 453 521 34,000 60 Level FlightAware
05:17AM 35.3690 23.3970 301° West 451 519 34,100  Climbing FlightAware
05:17AM 35.4080 23.3170 301° West 450 518 34,000 -120 Descending FlightAware
05:18AM 35.4470 23.2380 301° West 450 518 34,000  Level FlightAware
05:18AM 35.4820 23.1670 301° West 452 520 34,000  Level FlightAware
05:19AM 35.5220 23.0850 301° West 453 521 34,000  Level FlightAware
05:20AM 35.5620 23.0020 301° West 452 520 34,000  Level FlightAware
05:20AM 35.5920 22.9410 301° West 451 519 34,000  Level FlightAware
05:21AM 35.6350 22.8530 301° West 450 518 34,000  Level FlightAware
05:21AM 35.6700 22.7800 301° West 449 517 34,000  Level FlightAware
05:22AM 35.7050 22.7090 301° West 449 517 34,000  Level FlightAware
05:23AM 35.7620 22.5900 301° West 446 513 34,000  Level FlightAware
05:23AM 35.7950 22.5200 300° West 446 513 34,000  Level FlightAware
05:24AM 35.8330 22.4410 301° West 446 513 34,000  Level FlightAware
05:24AM 35.8710 22.3620 301° West 446 513 34,000  Level FlightAware
05:25AM 35.9080 22.2830 300° West 446 513 34,000  Level FlightAware
05:26AM 35.9400 22.2150 300° West 446 513 34,000  Level FlightAware
05:26AM 35.9720 22.1460 300° West 446 513 34,000  Level FlightAware
05:27AM 36.0040 22.0780 300° West 446 513 34,000  Level FlightAware
05:28AM 36.0360 22.0090 300° West 446 513 34,000  Level FlightAware
05:28AM 36.0680 21.9410 300° West 446 513 34,000  Level FlightAware
05:29AM 36.1000 21.8740 301° West 446 513 34,000 780 Level FlightAware
05:29AM 36.1800 21.7100 301° West 34,400 1,140 Climbing FlightAware
05:30AM 36.2170 21.6310 300° West 435 501 35,400 840 Climbing FlightAware
05:30AM 36.2440 21.5720 300° West 435 501 35,400  Level FlightAware
05:31AM 36.2730 21.5050 298° West 435 501 35,400  Level FlightAware
05:32AM 36.3030 21.4380 299° West 435 501 35,400  Level FlightAware
05:32AM 36.3330 21.3710 299° West 435 501 35,400  Level FlightAware
05:33AM 36.3630 21.3050 299° West 435 501 35,400  Level FlightAware
05:33AM 36.3930 21.2380 299° West 435 501 35,400  Level FlightAware
05:34AM 36.4240 21.1690 299° West 435 501 35,400  Level FlightAware
05:35AM 36.4530 21.1020 298° West 435 501 35,400  Level FlightAware
05:35AM 36.4840 21.0330 299° West 435 501 35,400  Level FlightAware
05:36AM 36.5140 20.9660 299° West 435 501 35,400  Level FlightAware
05:37AM 36.5440 20.8990 299° West 435 501 35,400  Level FlightAware
05:37AM 36.5740 20.8320 299° West 435 501 35,400  Level FlightAware
05:38AM 36.6040 20.7650 299° West 435 501 35,400  Level FlightAware
05:38AM 36.6330 20.6980 298° West 435 501 35,400  Level FlightAware
05:39AM 36.6640 20.6290 299° West 435 501 35,400  Level FlightAware
05:40AM 36.6940 20.5620 299° West 435 501 35,400 60 Level FlightAware
05:42AM 37.0217 20.1651 316° Northwest  Level Estimated
05:43AM 37.1878 19.9620 316° Northwest  Level Estimated
05:44AM 37.3535 19.7581 316° Northwest  Level Estimated
05:45AM 37.5189 19.5532 316° Northwest  Level Estimated
05:46AM 37.6840 19.3474 315° West  Level Estimated
05:46AM 37.1610 19.5480 315° West 426 490 36,000  Level FlightAware
05:47AM 37.1980 19.4640 299° West 426 490 36,000  Level FlightAware
05:47AM 37.2270 19.3950 298° West 426 490 36,000  Level FlightAware
05:48AM 37.2550 19.3290 298° West 426 490 36,000  Level FlightAware
05:49AM 37.3220 19.1790 299° West 431 496 36,000  Level FlightAware
05:49AM 37.3600 19.0940 299° West 435 501 36,000  Level FlightAware
05:50AM 37.3940 19.0140 298° West 438 504 36,000 60 Level FlightAware
05:51AM 37.4270 18.9500 303° West 443 510 36,100  Climbing FlightAware
05:51AM 37.4700 18.8700 304° West 442 509 36,000 -120 Descending FlightAware
05:52AM 37.5080 18.7980 304° West 442 509 36,000 60 Level FlightAware
05:52AM 37.5550 18.7100 304° West 441 507 36,100 60 Climbing FlightAware
05:53AM 37.6050 18.6140 303° West 439 505 36,100 -120 Level FlightAware
05:54AM 37.6510 18.5280 304° West 438 504 36,000 -120 Descending FlightAware
05:55AM 37.6840 18.4630 303° West 438 504 36,000  Level FlightAware
05:55AM 37.7460 18.3470 304° West 432 497 36,000  Level FlightAware
05:56AM 37.7870 18.2700 304° West 430 495 36,000  Level FlightAware
05:57AM 37.8280 18.1920 304° West 428 493 36,000  Level FlightAware
05:57AM 37.8630 18.1270 304° West 428 493 36,000  Level FlightAware
05:58AM 37.9030 18.0490 303° West 428 493 36,000  Level FlightAware
05:58AM 37.9410 17.9750 303° West 426 490 36,000  Level FlightAware
05:59AM 37.9810 17.8990 304° West 426 490 36,000  Level FlightAware
05:59AM 38.0150 17.8330 303° West 427 491 36,000  Level FlightAware
06:00AM 38.0560 17.7540 303° West 427 491 36,000  Level FlightAware
06:01AM 38.0910 17.6860 303° West 428 493 36,000  Level FlightAware
06:01AM 38.1280 17.6140 303° West 427 491 36,000 60 Level FlightAware
06:02AM 38.1680 17.5380 304° West 426 490 36,100  Climbing FlightAware
06:02AM 38.2060 17.4630 303° West 423 487 36,000 -120 Descending FlightAware
06:03AM 38.2450 17.3870 303° West 422 486 36,000  Level FlightAware
06:03AM 38.2790 17.3200 303° West 421 484 36,000  Level FlightAware
06:04AM 38.3160 17.2470 303° West 420 483 36,000  Level FlightAware
06:05AM 38.3550 17.1710 303° West 417 480 36,000  Level FlightAware
06:05AM 38.3920 17.0980 303° West 415 478 36,000  Level FlightAware
06:06AM 38.4290 17.0240 303° West 414 476 36,000  Level FlightAware
06:06AM 38.4630 16.9580 303° West 415 478 36,000  Level FlightAware
06:07AM 38.5000 16.8840 303° West 419 482 36,000  Level FlightAware
06:08AM 38.5380 16.8080 303° West 423 487 36,000  Level FlightAware
06:08AM 38.5720 16.7400 303° West 426 490 36,000  Level FlightAware
06:09AM 38.6110 16.6630 303° West 428 493 36,000  Level FlightAware
06:09AM 38.6510 16.5820 302° West 431 496 36,000  Level FlightAware
06:10AM 38.6890 16.5040 302° West 433 498 36,000  Level FlightAware
06:11AM 38.7250 16.4320 303° West 435 501 36,000  Level FlightAware
06:11AM 38.7680 16.3530 305° West 437 503 36,000  Level FlightAware
06:12AM 38.8060 16.2950 310° West 438 504 36,000  Level FlightAware
06:12AM 38.8560 16.2190 310° West 440 506 36,000  Level FlightAware
06:13AM 38.9010 16.1510 310° West 440 506 36,000  Level FlightAware
06:13AM 38.9500 16.0780 311° West 441 507 36,000  Level FlightAware
06:14AM 38.9950 16.0080 310° West 442 509 36,000  Level FlightAware
06:15AM 39.0430 15.9360 311° West 442 509 36,000  Level FlightAware
06:15AM 39.0860 15.8700 310° West 441 507 36,000  Level FlightAware
06:16AM 39.1320 15.8000 310° West 441 507 36,000  Level FlightAware
06:16AM 39.1800 15.7260 310° West 441 507 36,000  Level FlightAware
06:17AM 39.2270 15.6550 311° West 440 506 36,000  Level FlightAware
06:17AM 39.2700 15.5890 310° West 440 506 36,000  Level FlightAware
06:18AM 39.3170 15.5170 310° West 440 506 36,000  Level FlightAware
06:19AM 39.3640 15.4440 310° West 440 506 36,000  Level FlightAware
06:19AM 39.4010 15.3860 310° West 439 505 36,000  Level FlightAware
06:20AM 39.4500 15.3110 310° West 438 504 36,000  Level FlightAware
06:20AM 39.4990 15.2350 310° West 440 506 36,000  Level FlightAware
06:21AM 39.5440 15.1650 310° West 441 507 36,000  Level FlightAware
06:22AM 39.5880 15.0970 310° West 442 509 36,000  Level FlightAware
06:22AM 39.6280 15.0340 310° West 442 509 36,000 60 Level FlightAware
06:23AM 39.6830 14.9480 310° West 441 507 36,100  Climbing FlightAware
06:23AM 39.7240 14.8830 309° West 440 506 36,000 -120 Descending FlightAware
06:24AM 39.7680 14.8150 310° West 439 505 36,000  Level FlightAware
06:25AM 39.8200 14.7330 310° West 437 503 36,000  Level FlightAware
06:25AM 39.8630 14.6640 309° West 436 502 36,000  Level FlightAware
06:26AM 39.9040 14.5990 309° West 435 501 36,000  Level FlightAware
06:26AM 39.9510 14.5240 309° West 435 501 36,000  Level FlightAware
06:27AM 39.9920 14.4590 309° West 433 498 36,000  Level FlightAware
06:27AM 40.0420 14.3800 310° West 430 495 36,000  Level FlightAware
06:28AM 40.0780 14.3220 309° West 427 491 36,000  Level FlightAware
06:29AM 40.1280 14.2440 310° West 423 487 36,000  Level FlightAware
06:29AM 40.1740 14.1810 314° West 421 484 36,000  Level FlightAware
06:30AM 40.2220 14.1130 313° West 421 484 36,000  Level FlightAware
06:30AM 40.2710 14.0460 314° West 423 487 36,000  Level FlightAware
06:31AM 40.3200 13.9770 313° West 423 487 36,000  Level FlightAware
06:31AM 40.3620 13.9180 313° West 425 489 36,000  Level FlightAware
06:32AM 40.4100 13.8510 313° West 424 488 36,000 60 Level FlightAware
06:33AM 40.4580 13.7830 313° West 425 489 36,100 420 Climbing FlightAware
06:33AM 40.5030 13.7200 313° West 427 491 36,500 600 Climbing FlightAware
06:34AM 40.5510 13.6520 313° West 430 495 36,800 480 Climbing FlightAware
06:34AM 40.5970 13.5870 313° West 433 498 37,100 420 Climbing FlightAware
06:35AM 40.6400 13.5260 313° West 438 504 37,300 600 Climbing FlightAware
06:36AM 40.6970 13.4440 313° West 431 496 37,900 540 Climbing FlightAware
06:36AM 40.7380 13.3850 313° West 436 502 38,000 60 Climbing FlightAware
06:37AM 40.7900 13.3120 313° West 439 505 38,000  Level FlightAware
06:37AM 40.8350 13.2470 312° West 438 504 38,000  Level FlightAware
06:38AM 40.8850 13.1750 313° West 442 509 38,000  Level FlightAware
06:38AM 40.9280 13.1130 313° West 440 506 38,000  Level FlightAware
06:39AM 40.9910 13.0220 313° West 437 503 38,000  Level FlightAware
06:40AM 41.0390 12.9540 313° West 435 501 38,000  Level FlightAware
06:40AM 41.0890 12.8820 313° West 435 501 38,000  Level FlightAware
06:41AM 41.1350 12.8130 312° West 435 501 38,000  Level FlightAware
06:42AM 41.1790 12.7500 313° West 436 502 38,000  Level FlightAware
06:42AM 41.2270 12.6800 312° West 434 499 38,000  Level FlightAware
06:43AM 41.2770 12.6060 312° West 432 497 38,000  Level FlightAware
06:43AM 41.3250 12.5370 313° West 430 495 38,000  Level FlightAware
06:44AM 41.3700 12.4700 312° West 429 494 38,000  Level FlightAware
06:44AM 41.4170 12.4000 312° West 428 493 38,000  Level FlightAware
06:45AM 41.4640 12.3310 312° West 427 491 38,000  Level FlightAware
06:46AM 41.5100 12.2640 313° West 427 491 38,000  Level FlightAware
06:46AM 41.5550 12.1970 312° West 427 491 38,000  Level FlightAware
06:47AM 41.6050 12.1230 312° West 428 493 38,000  Level FlightAware
06:47AM 41.6460 12.0610 312° West 427 491 38,000  Level FlightAware
06:48AM 41.6940 11.9900 312° West 427 491 38,000  Level FlightAware
06:49AM 41.7410 11.9180 311° West 426 490 38,000  Level FlightAware
06:49AM 41.7840 11.8550 312° West 427 491 38,000  Level FlightAware
06:50AM 41.8290 11.7870 312° West 430 495 38,000  Level FlightAware
06:50AM 41.8790 11.7120 312° West 433 498 38,000 60 Level FlightAware
06:51AM 41.9270 11.6390 311° West 433 498 38,100 60 Climbing FlightAware
06:51AM 41.9760 11.5650 312° West 432 497 38,100 -120 Level FlightAware
06:52AM 42.0180 11.5010 311° West 431 496 38,000 -120 Descending FlightAware
06:53AM 42.0650 11.4280 311° West 430 495 38,000  Level FlightAware
06:53AM 42.1130 11.3550 312° West 427 491 38,000  Level FlightAware
06:54AM 42.1600 11.2830 311° West 424 488 38,000  Level FlightAware
06:54AM 42.2040 11.2260 316° Northwest 415 478 38,000  Level FlightAware
06:55AM 42.2600 11.1720 324° Northwest 409 471 38,000  Level FlightAware
06:56AM 42.3160 11.1200 326° Northwest 409 471 38,000  Level FlightAware
06:56AM 42.3720 11.0680 326° Northwest 409 471 38,000  Level FlightAware
06:57AM 42.4200 11.0230 325° Northwest 406 467 38,000  Level FlightAware
06:57AM 42.4760 10.9710 326° Northwest 402 463 38,000  Level FlightAware
06:58AM 42.5300 10.9200 325° Northwest 398 458 38,000  Level FlightAware
06:58AM 42.5790 10.8750 326° Northwest 395 455 38,000  Level FlightAware
06:59AM 42.6340 10.8240 326° Northwest 395 455 38,000  Level FlightAware
07:00AM 42.6910 10.7700 325° Northwest 398 458 38,000  Level FlightAware
07:00AM 42.7390 10.7250 325° Northwest 400 460 38,000  Level FlightAware
07:01AM 42.7950 10.6720 325° Northwest 402 463 38,000 60 Level FlightAware
07:01AM 42.8490 10.6210 325° Northwest 404 465 38,100 60 Climbing FlightAware
07:02AM 42.9030 10.5690 325° Northwest 403 464 38,100 -120 Level FlightAware
07:03AM 42.9530 10.5220 325° Northwest 403 464 38,000 -120 Descending FlightAware
07:03AM 43.0100 10.4680 325° Northwest 402 463 38,000  Level FlightAware
07:04AM 43.0650 10.4160 325° Northwest 400 460 38,000  Level FlightAware
07:04AM 43.1140 10.3690 325° Northwest 397 457 38,000  Level FlightAware
07:05AM 43.1680 10.3170 325° Northwest 397 457 38,000  Level FlightAware
07:05AM 43.2180 10.2690 325° Northwest 397 457 38,000  Level FlightAware
07:06AM 43.2730 10.2170 325° Northwest 398 458 38,000  Level FlightAware
07:07AM 43.3210 10.1700 325° Northwest 398 458 38,000  Level FlightAware
07:07AM 43.3780 10.1160 325° Northwest 398 458 38,000  Level FlightAware
07:08AM 43.4300 10.0650 325° Northwest 401 461 38,000  Level FlightAware
07:08AM 43.4860 10.0110 325° Northwest 403 464 38,000  Level FlightAware
07:09AM 43.5390 9.9590 325° Northwest 403 464 38,000  Level FlightAware
07:10AM 43.5910 9.9090 325° Northwest 404 465 38,000  Level FlightAware
07:10AM 43.6440 9.8570 325° Northwest 405 466 38,000  Level FlightAware
07:11AM 43.6990 9.8030 325° Northwest 406 467 38,000  Level FlightAware
07:11AM 43.7570 9.7470 325° Northwest 407 468 38,000  Level FlightAware
07:12AM 43.8010 9.7030 324° Northwest 405 466 38,000  Level FlightAware
07:12AM 43.8600 9.6460 325° Northwest 405 466 38,000  Level FlightAware
07:13AM 43.9160 9.5900 324° Northwest 405 466 38,000  Level FlightAware
07:14AM 43.9650 9.5410 324° Northwest 405 466 38,000 -480 Level FlightAware
07:14AM 44.0330 9.4740 325° Northwest 404 465 37,400 -900 Descending FlightAware
07:15AM 44.0850 9.4230 325° Northwest 407 468 36,800 -1,020 Descending FlightAware
07:16AM 44.1420 9.3660 324° Northwest 410 472 36,200 -720 Descending FlightAware
07:16AM 44.1920 9.3160 324° Northwest 413 475 36,000 -180 Descending FlightAware
07:17AM 44.2490 9.2510 321° Northwest 412 474 36,000  Level FlightAware
07:17AM 44.2940 9.1980 320° Northwest 412 474 36,000  Level FlightAware
07:18AM 44.3480 9.1330 319° Northwest 412 474 36,000  Level FlightAware
07:18AM 44.4000 9.0710 320° Northwest 413 475 36,000  Level FlightAware
07:19AM 44.4420 9.0200 319° Northwest 413 475 36,000  Level FlightAware
07:20AM 44.4980 8.9540 320° Northwest 412 474 36,000  Level FlightAware
07:20AM 44.5490 8.8930 320° Northwest 411 473 36,000  Level FlightAware
07:21AM 44.5960 8.8350 319° Northwest 411 473 36,000 -120 Level FlightAware
07:21AM 44.6480 8.7730 320° Northwest 411 473 35,900 -540 Descending FlightAware
07:22AM 44.7000 8.7100 319° Northwest 416 479 35,400 -960 Descending FlightAware
07:22AM 44.7510 8.6480 319° Northwest 423 487 34,800 -1,080 Descending FlightAware
07:23AM 44.8050 8.5830 320° Northwest 423 487 34,200 -1,020 Descending FlightAware
07:24AM 44.8570 8.5190 319° Northwest 427 491 33,600 -960 Descending FlightAware
07:24AM 44.9070 8.4580 319° Northwest 432 497 33,100 -960 Descending FlightAware
07:25AM 44.9730 8.3780 319° Northwest 433 498 32,400 -960 Descending FlightAware
07:25AM 45.0200 8.3200 319° Northwest 435 501 32,000 -840 Descending FlightAware
07:26AM 45.0820 8.2430 319° Northwest 433 498 31,400 -960 Descending FlightAware
07:27AM 45.1290 8.1850 319° Northwest 434 499 30,900 -960 Descending FlightAware
07:27AM 45.1790 8.1230 319° Northwest 430 495 30,400 -1,080 Descending FlightAware
07:28AM 45.2330 8.0560 319° Northwest 430 495 29,700 -1,020 Descending FlightAware
07:28AM 45.2880 7.9870 319° Northwest 427 491 29,200 -960 Descending FlightAware
07:29AM 45.3390 7.9250 319° Northwest 423 487 28,600 -1,020 Descending FlightAware
07:30AM 45.3860 7.8560 314° West 419 482 28,000 -960 Descending FlightAware
07:30AM 45.4340 7.7650 307° West 418 481 27,400 -960 Descending FlightAware
07:31AM 45.4780 7.6820 307° West 410 472 26,800 -960 Descending FlightAware
07:31AM 45.5150 7.6100 306° West 408 470 26,300 -1,020 Descending FlightAware
07:32AM 45.5530 7.5370 307° West 401 461 25,700 -1,020 Descending FlightAware
07:33AM 45.5900 7.4660 307° West 401 461 25,200 -1,020 Descending FlightAware
07:33AM 45.6270 7.3960 307° West 402 463 24,600 -1,080 Descending FlightAware
07:34AM 45.6730 7.3070 307° West 395 455 23,900 -960 Descending FlightAware
07:34AM 45.7100 7.2340 306° West 397 457 23,400 -960 Descending FlightAware
07:35AM 45.7490 7.1590 307° West 397 457 22,800 -1,080 Descending FlightAware
07:36AM 45.7870 7.0850 306° West 391 450 22,200 -1,020 Descending FlightAware
07:36AM 45.8190 7.0220 306° West 388 447 21,700 -1,020 Descending FlightAware
07:37AM 45.8600 6.9420 306° West 386 444 21,100 -1,260 Descending FlightAware
07:37AM 45.8960 6.8710 306° West 382 440 20,200 -1,740 Descending FlightAware
07:38AM 45.9340 6.7970 306° West 376 433 19,000 -2,040 Descending FlightAware
07:38AM 45.9680 6.7300 306° West 371 427 17,900 -1,980 Descending FlightAware
07:39AM 46.0020 6.6630 306° West 368 423 16,900 -1,920 Descending FlightAware
07:40AM 46.0470 6.5730 306° West 365 420 15,400 -1,860 Descending FlightAware
07:40AM 46.0790 6.5080 305° West 363 418 14,500 -1,380 Descending FlightAware
07:41AM 46.1120 6.4360 303° West 356 410 13,900 -1,500 Descending FlightAware
07:42AM 46.1450 6.3650 304° West 343 395 12,700 -1,800 Descending FlightAware
07:42AM 46.1540 6.3440 302° West 330 380 12,500 -1,260 Descending FlightAware
07:42AM 46.1600 6.3090 284° West 318 366 12,100 -2,160 Descending FlightAware
07:42AM 46.1530 6.2690 256° West 317 365 11,200 -2,220 Descending FlightAware
07:43AM 46.1280 6.2070 240° Southwest 299 344 10,100 -1,920 Descending FlightAware
07:43AM 46.1140 6.1710 241° Southwest 296 341 9,400 -2,280 Descending FlightAware
07:44AM 46.1010 6.1370 241° Southwest 293 337 8,600 -2,400 Descending FlightAware
07:44AM 46.0880 6.1050 240° Southwest 290 334 7,900 -1,680 Descending FlightAware
07:44AM 46.0750 6.0710 241° Southwest 268 308 7,500 -1,320 Descending FlightAware
07:45AM 46.0560 6.0240 240° Southwest 267 307 6,800 -960 Descending FlightAware
07:45AM 46.0450 5.9940 242° Southwest 249 287 6,700 -180 Descending FlightAware
07:45AM 46.0310 5.9590 240° Southwest 238 274 6,700 120 Level FlightAware
07:46AM 46.0200 5.9320 240° Southwest 228 262 6,800 120 Climbing FlightAware
07:46AM 46.0100 5.9060 241° Southwest 219 252 6,800 -180 Level FlightAware
07:46AM 46.0010 5.8790 244° Southwest 219 252 6,700 -240 Descending FlightAware
07:47AM 46.0010 5.8720 270° West 220 253 6,700 -960 Level FlightAware
07:47AM 46.0080 5.8460 291° West 208 239 6,300 -1,440 Descending FlightAware
07:47AM 46.0170 5.8380 328° Northwest 200 230 6,000 -1,620 Descending FlightAware
07:47AM 46.0210 5.8360 341° North 197 227 5,900 -1,200 Descending FlightAware
07:47AM 46.0260 5.8350 352° North 194 223 5,800 -420 Descending FlightAware
07:48AM 46.0500 5.8400 North 197 227 5,700 -180 Descending FlightAware
07:48AM 46.0570 5.8470 35° Northeast 197 227 5,700 -600 Level FlightAware
07:48AM 46.0710 5.8650 42° Northeast 193 222 5,400 -780 Descending FlightAware
07:49AM 46.0840 5.8830 44° Northeast 191 220 5,200 -900 Descending FlightAware
07:49AM 46.0960 5.9010 46° Northeast 193 222 4,800 -1,200 Descending FlightAware
07:49AM 46.1090 5.9200 45° Northeast 189 217 4,400 -1,200 Descending FlightAware
07:49AM 46.1190 5.9340 44° Northeast 185 213 4,100 -1,020 Descending FlightAware
07:50AM 46.1310 5.9510 44° Northeast 180 207 3,800 -900 Descending FlightAware
07:50AM 46.1430 5.9690 46° Northeast 178 205 3,500 -900 Descending FlightAware
07:50AM 46.1540 5.9860 47° Northeast 176 203 3,200 -960 Descending FlightAware
07:51AM 46.1680 6.0070 46° Northeast 166 191 2,800 -960 Descending FlightAware
07:51AM 46.1780 6.0210 44° Northeast 153 176 2,500 -780 Descending FlightAware
07:52AM 46.1880 6.0350 44° Northeast 140 161 2,300 -600 Descending FlightAware
07:52AM 46.1970 6.0480 45° Northeast 137 158 2,100 -840 Descending FlightAware
07:52AM 46.2080 6.0650 47° Northeast 135 155 1,700 -840 Descending FlightAware
07:53AM 46.2170 6.0780 45° Northeast 135 155 1,500 -600 Descending FlightAware
07:53AM 46.2210 6.0840 46° Northeast 131 151 1,400 -720 Descending FlightAware
07:53AM 46.2310 6.0990 46° Northeast 131 151 1,100 -720 Descending FlightAware